Time;durP1;ratioP1;P1;durP2;ratioP2;P2;SDS_P1;SDS_P2;PMS_P1;PMS_P2;Temp;Humidity;BMP_temperature;BMP_pressure;BME280_temperature;BME280_humidity;BME280_pressure;Samples;Min_cycle;Max_cycle;Signal;HPM_P1;HPM_P2
2022/10/06 00:00:43;;;;;;;17.15;6.65;;;12.40;99.90;;;;;;5023535;28;20065;-79
2022/10/06 00:03:09;;;;;;;13.93;7.38;;;12.40;99.90;;;;;;5022904;28;20025;-78
2022/10/06 00:05:35;;;;;;;15.23;6.35;;;12.30;99.90;;;;;;5015576;28;20113;-80
2022/10/06 00:08:02;;;;;;;20.20;7.25;;;12.40;99.90;;;;;;5031872;28;20032;-79
2022/10/06 00:10:28;;;;;;;10.88;6.85;;;12.40;99.90;;;;;;5033277;28;20096;-81
2022/10/06 00:12:54;;;;;;;13.77;7.38;;;12.40;99.90;;;;;;5017757;28;20033;-80
2022/10/06 00:15:27;;;;;;;15.82;7.38;;;12.40;99.90;;;;;;5035064;28;20039;-82
2022/10/06 00:17:54;;;;;;;15.75;7.97;;;12.30;99.90;;;;;;5025176;28;20096;-79
2022/10/06 00:20:21;;;;;;;9.38;6.90;;;12.30;99.90;;;;;;5031783;28;20041;-80
2022/10/06 00:22:48;;;;;;;14.13;7.03;;;12.30;99.90;;;;;;5026644;28;20034;-81
2022/10/06 00:25:20;;;;;;;15.52;7.15;;;12.30;99.90;;;;;;5019908;28;20026;-79
2022/10/06 00:27:48;;;;;;;14.65;7.88;;;12.30;99.90;;;;;;5030565;28;20437;-79
2022/10/06 00:30:21;;;;;;;14.77;8.48;;;12.20;99.90;;;;;;5024971;28;20124;-79
2022/10/06 00:32:59;;;;;;;15.98;8.65;;;12.20;99.90;;;;;;5025264;28;20450;-81
2022/10/06 00:35:33;;;;;;;16.42;8.30;;;12.10;99.90;;;;;;5032269;28;20034;-80
2022/10/06 00:38:00;;;;;;;17.25;8.88;;;12.10;99.90;;;;;;5031289;28;20042;-78
2022/10/06 00:40:26;;;;;;;26.17;9.15;;;12.00;99.90;;;;;;5019429;28;20048;-79
2022/10/06 00:42:58;;;;;;;14.80;8.65;;;12.00;99.90;;;;;;5012789;28;20084;-79
2022/10/06 00:45:30;;;;;;;17.98;9.50;;;12.00;99.90;;;;;;5032451;28;20117;-80
2022/10/06 00:48:00;;;;;;;28.48;8.93;;;11.90;99.90;;;;;;5035084;28;20064;-79
2022/10/06 00:50:27;;;;;;;12.63;8.63;;;11.90;99.90;;;;;;5034971;28;20069;-79
2022/10/06 00:52:54;;;;;;;18.17;9.27;;;11.90;99.90;;;;;;5032298;28;20029;-79
2022/10/06 00:55:21;;;;;;;18.67;8.63;;;11.80;99.90;;;;;;5016464;28;20037;-78
2022/10/06 00:57:47;;;;;;;17.02;8.90;;;11.80;99.90;;;;;;5017705;28;20030;-78
2022/10/06 01:00:13;;;;;;;15.75;8.63;;;11.80;99.90;;;;;;5007368;28;20066;-80
2022/10/06 01:02:47;;;;;;;16.80;8.63;;;11.80;99.90;;;;;;5024086;28;20026;-80
2022/10/06 01:05:21;;;;;;;16.70;9.02;;;11.80;99.90;;;;;;5020777;28;20116;-78
2022/10/06 01:07:47;;;;;;;14.15;8.57;;;11.80;99.90;;;;;;5033741;28;20025;-79
2022/10/06 01:10:13;;;;;;;15.73;8.68;;;11.80;99.90;;;;;;5030157;28;20117;-78
2022/10/06 01:12:39;;;;;;;19.90;9.07;;;11.80;99.90;;;;;;5033778;28;20033;-80
2022/10/06 01:15:06;;;;;;;15.55;9.25;;;11.80;99.90;;;;;;5036111;28;20108;-79
2022/10/06 01:17:41;;;;;;;16.08;8.98;;;11.80;99.90;;;;;;5035749;28;20124;-82
2022/10/06 01:20:14;;;;;;;17.98;8.70;;;11.80;99.90;;;;;;5025494;28;20029;-80
2022/10/06 01:23:09;;;;;;;16.13;8.32;;;11.80;99.90;;;;;;5025551;28;20048;-80
2022/10/06 01:25:35;;;;;;;13.75;8.43;;;11.70;99.90;;;;;;5016638;28;20026;-81
2022/10/06 01:28:07;;;;;;;15.90;9.07;;;11.70;99.90;;;;;;5037879;28;20041;-77
2022/10/06 01:30:44;;;;;;;24.38;9.88;;;11.70;99.90;;;;;;5030537;28;20116;-79
2022/10/06 01:33:12;;;;;;;16.05;9.25;;;11.70;99.90;;;;;;5032548;28;20056;-79
2022/10/06 01:35:38;;;;;;;14.13;9.40;;;11.70;99.90;;;;;;5029615;28;20743;-80
2022/10/06 01:38:05;;;;;;;18.60;8.65;;;11.60;99.90;;;;;;5024459;28;20033;-80
2022/10/06 01:40:32;;;;;;;16.35;9.40;;;11.60;99.90;;;;;;5028745;28;20109;-79
2022/10/06 01:43:00;;;;;;;17.95;9.20;;;11.60;99.90;;;;;;5035485;28;20516;-80
2022/10/06 01:45:26;;;;;;;16.75;8.98;;;11.50;99.90;;;;;;5015970;28;20117;-78
2022/10/06 01:47:52;;;;;;;14.00;8.32;;;11.50;99.90;;;;;;5029542;28;20053;-79
2022/10/06 01:50:18;;;;;;;18.30;9.02;;;11.50;99.90;;;;;;5024785;28;20038;-81
2022/10/06 01:52:44;;;;;;;14.82;9.30;;;11.40;99.90;;;;;;5026919;28;20037;-80
2022/10/06 01:55:09;;;;;;;21.75;10.32;;;11.40;99.90;;;;;;5032612;28;20061;-78
2022/10/06 01:57:40;;;;;;;20.13;9.60;;;11.30;99.90;;;;;;5019422;28;20072;-79
2022/10/06 02:00:09;;;;;;;17.10;9.45;;;11.30;99.90;;;;;;5028060;28;20074;-78
2022/10/06 02:02:38;;;;;;;14.82;9.00;;;11.30;99.90;;;;;;5028619;28;20485;-80
2022/10/06 02:05:05;;;;;;;18.17;9.32;;;11.30;99.90;;;;;;5041164;28;20036;-78
2022/10/06 02:07:33;;;;;;;19.83;9.68;;;11.30;99.90;;;;;;5043821;28;20397;-77
2022/10/06 02:09:58;;;;;;;14.23;8.80;;;11.30;99.90;;;;;;5043570;28;20040;-78
2022/10/06 02:12:24;;;;;;;16.20;9.02;;;11.20;99.90;;;;;;5028773;28;20509;-78
2022/10/06 02:14:50;;;;;;;20.17;10.00;;;11.20;99.90;;;;;;5044903;28;20033;-78
2022/10/06 02:17:16;;;;;;;24.83;9.30;;;11.20;99.90;;;;;;5044612;28;20022;-79
2022/10/06 02:19:42;;;;;;;15.73;9.52;;;11.20;99.90;;;;;;5024825;28;20125;-78
2022/10/06 02:22:08;;;;;;;16.35;9.57;;;11.20;99.90;;;;;;5021283;28;20022;-80
2022/10/06 02:24:34;;;;;;;14.95;9.57;;;11.20;99.90;;;;;;5019368;28;20030;-78
2022/10/06 02:27:00;;;;;;;15.80;9.52;;;11.20;99.90;;;;;;5020059;28;20402;-78
2022/10/06 02:29:26;;;;;;;18.00;9.30;;;11.20;99.90;;;;;;5032278;28;20030;-80
2022/10/06 02:31:54;;;;;;;17.75;10.15;;;11.10;99.90;;;;;;5031798;28;20407;-81
2022/10/06 02:34:20;;;;;;;14.88;9.57;;;11.10;99.90;;;;;;5016105;28;20113;-80
2022/10/06 02:36:46;;;;;;;14.20;9.10;;;11.10;99.90;;;;;;5014907;28;20489;-79
2022/10/06 02:39:12;;;;;;;17.10;10.90;;;11.10;99.90;;;;;;5018363;28;20443;-78
2022/10/06 02:41:39;;;;;;;20.23;10.25;;;11.00;99.90;;;;;;5022408;28;20104;-80
2022/10/06 02:44:05;;;;;;;17.85;10.43;;;11.00;99.90;;;;;;5032911;28;20044;-78
2022/10/06 02:46:31;;;;;;;18.05;11.52;;;11.00;99.90;;;;;;5040565;28;20034;-78
2022/10/06 02:48:58;;;;;;;21.02;10.35;;;11.00;99.90;;;;;;5031989;28;20045;-78
2022/10/06 02:51:24;;;;;;;20.08;10.98;;;11.00;99.90;;;;;;5049370;28;20053;-79
2022/10/06 02:53:50;;;;;;;21.92;10.95;;;10.90;99.90;;;;;;5032288;28;20037;-78
2022/10/06 02:56:16;;;;;;;16.52;10.73;;;10.90;99.90;;;;;;5029478;28;20032;-80
2022/10/06 02:58:44;;;;;;;25.48;9.50;;;10.90;99.90;;;;;;5040288;28;20037;-78
2022/10/06 03:01:16;;;;;;;15.65;9.20;;;10.90;99.90;;;;;;5038502;28;20116;-79
2022/10/06 03:03:45;;;;;;;21.50;10.82;;;10.90;99.90;;;;;;5027673;28;20026;-79
2022/10/06 03:06:22;;;;;;;20.67;9.75;;;10.90;99.90;;;;;;5021442;28;20089;-80
2022/10/06 03:08:59;;;;;;;14.82;9.55;;;10.80;99.90;;;;;;5032666;28;20437;-79
2022/10/06 03:11:27;;;;;;;17.35;9.45;;;10.80;99.90;;;;;;5018070;28;20381;-78
2022/10/06 03:13:54;;;;;;;19.52;10.13;;;10.80;99.90;;;;;;5022029;28;20084;-77
2022/10/06 03:16:26;;;;;;;16.23;8.45;;;10.70;99.90;;;;;;5029970;28;20029;-78
2022/10/06 03:18:53;;;;;;;18.13;9.68;;;10.70;99.90;;;;;;5039463;28;20039;-79
2022/10/06 03:21:24;;;;;;;15.52;9.15;;;10.70;99.90;;;;;;5005048;28;20029;-80
2022/10/06 03:23:52;;;;;;;18.25;10.07;;;10.70;99.90;;;;;;5015325;28;20030;-79
2022/10/06 03:26:20;;;;;;;15.77;9.63;;;10.70;99.90;;;;;;5023661;28;20021;-79
2022/10/06 03:28:47;;;;;;;16.42;9.50;;;10.70;99.90;;;;;;5024781;28;20026;-77
2022/10/06 03:31:13;;;;;;;18.73;9.52;;;10.60;99.90;;;;;;5043765;28;20453;-78
2022/10/06 03:33:40;;;;;;;23.60;10.80;;;10.60;99.90;;;;;;5033525;28;20026;-80
2022/10/06 03:36:11;;;;;;;18.73;10.13;;;10.60;99.90;;;;;;5017485;28;20026;-79
2022/10/06 03:38:38;;;;;;;17.02;9.95;;;10.60;99.90;;;;;;5014147;28;20030;-79
2022/10/06 03:41:22;;;;;;;16.38;9.68;;;10.60;99.90;;;;;;5032413;28;20119;-79
2022/10/06 03:43:49;;;;;;;20.05;10.35;;;10.60;99.90;;;;;;5036190;28;20025;-79
2022/10/06 03:46:18;;;;;;;22.17;10.77;;;10.60;99.90;;;;;;5035993;28;20214;-79
2022/10/06 03:48:45;;;;;;;13.57;9.07;;;10.60;99.90;;;;;;5029234;28;20037;-78
2022/10/06 03:51:17;;;;;;;15.57;9.75;;;10.60;99.90;;;;;;5036674;28;20116;-79
2022/10/06 03:53:45;;;;;;;19.40;10.15;;;10.60;99.90;;;;;;5020225;28;20025;-78
2022/10/06 03:56:17;;;;;;;17.80;10.23;;;10.50;99.90;;;;;;5020392;28;20545;-80
2022/10/06 03:59:05;;;;;;;18.98;10.45;;;10.60;99.90;;;;;;5036470;28;20044;-78
2022/10/06 04:01:37;;;;;;;15.07;8.98;;;10.50;99.90;;;;;;5024146;28;20018;-78
2022/10/06 04:04:06;;;;;;;21.02;11.13;;;10.50;99.90;;;;;;5037113;28;20144;-80
2022/10/06 04:06:35;;;;;;;19.60;10.68;;;10.60;99.90;;;;;;5040686;28;20393;-79
2022/10/06 04:09:03;;;;;;;16.95;10.38;;;10.50;99.90;;;;;;5038491;28;20080;-80
2022/10/06 04:11:32;;;;;;;17.65;10.38;;;10.50;99.90;;;;;;5021835;28;20034;-81
2022/10/06 04:14:00;;;;;;;21.13;9.80;;;10.50;99.90;;;;;;5017764;28;20034;-78
2022/10/06 04:16:36;;;;;;;17.85;9.82;;;10.50;99.90;;;;;;5027407;28;20437;-79
2022/10/06 04:19:06;;;;;;;22.52;10.25;;;10.50;99.90;;;;;;5026300;28;20033;-79
2022/10/06 04:21:35;;;;;;;23.92;11.30;;;10.50;99.90;;;;;;5025187;28;20449;-79
2022/10/06 04:24:03;;;;;;;20.92;10.75;;;10.50;99.90;;;;;;5036520;28;20052;-81
2022/10/06 04:26:32;;;;;;;20.95;11.48;;;10.50;99.90;;;;;;5040743;28;20033;-79
2022/10/06 04:29:01;;;;;;;24.20;12.00;;;10.50;99.90;;;;;;5035348;28;20033;-78
2022/10/06 04:31:29;;;;;;;19.10;11.05;;;10.50;99.90;;;;;;5019730;28;20034;-78
2022/10/06 04:34:00;;;;;;;21.83;10.63;;;10.40;99.90;;;;;;5020606;28;20033;-80
2022/10/06 04:36:30;;;;;;;18.50;10.23;;;10.40;99.90;;;;;;5021724;28;20032;-79
2022/10/06 04:39:02;;;;;;;20.20;10.48;;;10.40;99.90;;;;;;5034309;28;20140;-79
2022/10/06 04:41:32;;;;;;;16.77;10.65;;;10.40;99.90;;;;;;5020636;28;20136;-79
2022/10/06 04:43:59;;;;;;;22.05;10.32;;;10.40;99.90;;;;;;5025229;28;20022;-80
2022/10/06 04:46:27;;;;;;;19.85;10.68;;;10.40;99.90;;;;;;5044917;23;20044;-86
2022/10/06 04:48:53;;;;;;;20.30;11.35;;;10.40;99.90;;;;;;5027659;28;20038;-87
2022/10/06 04:51:24;;;;;;;19.40;12.07;;;10.30;99.90;;;;;;5031913;28;20026;-85
2022/10/06 04:53:50;;;;;;;19.58;10.70;;;10.30;99.90;;;;;;5028516;28;20089;-88
2022/10/06 04:56:25;;;;;;;18.40;10.55;;;10.30;99.90;;;;;;5028978;28;20049;-86
2022/10/06 04:58:53;;;;;;;22.00;10.88;;;10.30;99.90;;;;;;5014692;28;20094;-84
2022/10/06 05:01:30;;;;;;;22.13;10.77;;;10.30;99.90;;;;;;5030354;28;20026;-86
2022/10/06 05:03:58;;;;;;;21.92;11.23;;;10.30;99.90;;;;;;5032726;28;20025;-88
2022/10/06 05:06:35;;;;;;;15.68;9.90;;;10.30;99.90;;;;;;5036035;28;20038;-85
2022/10/06 05:09:05;;;;;;;17.08;10.68;;;10.30;99.90;;;;;;5018849;28;20041;-84
2022/10/06 05:11:33;;;;;;;18.83;11.07;;;10.30;99.90;;;;;;5019929;28;20030;-84
2022/10/06 05:14:02;;;;;;;17.38;10.23;;;10.30;99.90;;;;;;5036002;28;20040;-89
2022/10/06 05:16:31;;;;;;;17.70;10.73;;;10.40;99.90;;;;;;5036298;28;20078;-86
2022/10/06 05:18:58;;;;;;;25.48;10.48;;;10.40;99.90;;;;;;5035667;28;20094;-85
2022/10/06 05:21:29;;;;;;;24.58;10.00;;;10.40;99.90;;;;;;5019726;28;20051;-87
2022/10/06 05:23:58;;;;;;;17.23;9.98;;;10.40;99.90;;;;;;5036108;28;20018;-86
2022/10/06 05:26:29;;;;;;;14.05;8.98;;;10.40;99.90;;;;;;5035574;28;20014;-87
2022/10/06 05:28:56;;;;;;;20.20;10.13;;;10.40;99.90;;;;;;5016454;28;20021;-87
2022/10/06 05:31:28;;;;;;;15.93;10.18;;;10.40;99.90;;;;;;5021987;28;20026;-87
2022/10/06 05:33:57;;;;;;;23.40;10.43;;;10.50;99.90;;;;;;5019486;28;20031;-87
2022/10/06 05:36:28;;;;;;;16.30;9.88;;;10.50;99.90;;;;;;5025599;28;20068;-85
2022/10/06 05:38:56;;;;;;;21.05;9.88;;;10.50;99.90;;;;;;5012628;28;20117;-87
2022/10/06 05:41:28;;;;;;;18.38;10.15;;;10.60;99.90;;;;;;5030318;28;20010;-89
2022/10/06 05:43:55;;;;;;;19.15;10.48;;;10.60;99.90;;;;;;5030391;28;20030;-88
2022/10/06 05:46:27;;;;;;;26.27;9.90;;;10.60;99.90;;;;;;5029288;28;20037;-87
2022/10/06 05:48:57;;;;;;;21.23;10.65;;;10.60;99.90;;;;;;5029272;28;20480;-88
2022/10/06 05:51:29;;;;;;;22.70;9.82;;;10.60;99.90;;;;;;5014820;28;20030;-87
2022/10/06 05:53:55;;;;;;;23.55;10.43;;;10.70;99.90;;;;;;5000675;28;20018;-87
2022/10/06 05:56:33;;;;;;;18.02;10.98;;;10.70;99.90;;;;;;4999072;28;20006;-88
2022/10/06 05:59:01;;;;;;;14.10;9.55;;;10.80;99.90;;;;;;5013345;28;20042;-89
2022/10/06 06:01:33;;;;;;;18.80;10.10;;;10.80;99.90;;;;;;5004740;28;20049;-89
2022/10/06 06:04:05;;;;;;;19.95;9.40;;;11.00;99.90;;;;;;4999892;28;20029;-87
2022/10/06 06:06:38;;;;;;;16.60;10.40;;;11.10;99.90;;;;;;5009921;28;20022;-92
2022/10/06 06:09:14;;;;;;;13.65;9.02;;;11.20;99.90;;;;;;5026768;28;20021;-89
2022/10/06 06:11:43;;;;;;;17.27;8.88;;;11.30;99.90;;;;;;5041900;28;20047;-91
2022/10/06 06:14:15;;;;;;;24.33;9.70;;;11.40;99.90;;;;;;5041755;28;20017;-89
2022/10/06 06:16:42;;;;;;;18.73;9.55;;;11.50;99.90;;;;;;5058281;28;20051;-90
2022/10/06 06:19:10;;;;;;;24.15;9.13;;;11.60;99.90;;;;;;5041946;28;20077;-91
2022/10/06 06:21:38;;;;;;;18.38;9.35;;;11.70;99.90;;;;;;5042077;28;20025;-87
2022/10/06 06:24:06;;;;;;;25.48;9.48;;;11.80;99.90;;;;;;5041168;28;20019;-91
2022/10/06 06:26:35;;;;;;;23.27;11.05;;;11.90;99.90;;;;;;5025509;28;20032;-89
2022/10/06 06:29:05;;;;;;;24.88;9.57;;;12.00;99.90;;;;;;5041472;28;20010;-90
2022/10/06 06:31:40;;;;;;;17.90;8.63;;;12.10;99.90;;;;;;5057826;28;20045;-91
2022/10/06 06:34:07;;;;;;;20.75;9.88;;;12.10;99.90;;;;;;5057774;28;20035;-91
2022/10/06 06:36:39;;;;;;;33.88;10.57;;;12.20;99.90;;;;;;5041517;28;20033;-92
2022/10/06 06:39:11;;;;;;;20.17;9.35;;;12.30;99.90;;;;;;5057732;28;20033;-91
2022/10/06 06:41:47;;;;;;;19.75;9.50;;;12.30;99.90;;;;;;5041261;28;20230;-83
2022/10/06 06:44:39;;;;;;;16.77;10.18;;;12.40;99.90;;;;;;5022200;28;20042;-84
2022/10/06 06:47:24;;;;;;;22.15;9.85;;;12.40;99.90;;;;;;5036142;28;20049;-85
2022/10/06 06:49:51;;;;;;;13.95;9.32;;;12.50;99.90;;;;;;5033648;28;20037;-85
2022/10/06 06:52:19;;;;;;;27.92;10.75;;;12.60;99.90;;;;;;5033201;28;20082;-84
2022/10/06 06:54:48;;;;;;;22.58;10.82;;;12.70;99.90;;;;;;5033117;28;20010;-86
2022/10/06 06:57:14;;;;;;;23.23;10.60;;;12.70;99.90;;;;;;5037394;28;20033;-83
2022/10/06 06:59:40;;;;;;;24.33;10.25;;;12.70;99.90;;;;;;5037074;28;20040;-83
2022/10/06 07:02:10;;;;;;;24.95;10.73;;;12.80;99.90;;;;;;5036589;28;20097;-84
2022/10/06 07:04:39;;;;;;;23.17;10.02;;;12.80;99.90;;;;;;5021083;28;20025;-82
2022/10/06 07:07:09;;;;;;;21.60;10.70;;;12.90;99.90;;;;;;5036602;28;20044;-85
2022/10/06 07:09:36;;;;;;;18.10;10.55;;;13.00;99.90;;;;;;5034858;28;20037;-87
2022/10/06 07:12:10;;;;;;;19.45;10.30;;;13.10;99.90;;;;;;5030268;28;20121;-86
2022/10/06 07:25:05;;;;;;;19.45;10.68;;;13.20;99.90;;;;;;5028861;28;20076;-87
2022/10/06 07:25:36;;;;;;;13.68;9.25;;;13.80;99.90;;;;;;5033066;28;20061;-87
2022/10/06 07:28:10;;;;;;;19.73;9.77;;;13.80;99.90;;;;;;5049216;28;20053;-86
2022/10/06 07:30:38;;;;;;;28.25;14.57;;;13.90;99.90;;;;;;5032422;28;20109;-85
2022/10/06 07:33:13;;;;;;;16.65;9.13;;;13.90;99.90;;;;;;5033421;28;20125;-86
2022/10/06 07:35:39;;;;;;;20.83;9.75;;;14.10;99.90;;;;;;5033640;28;20029;-86
2022/10/06 07:38:06;;;;;;;20.40;10.68;;;14.10;99.90;;;;;;5032040;28;20102;-86
2022/10/06 07:40:36;;;;;;;16.48;10.35;;;14.30;99.90;;;;;;5032398;28;20076;-86
2022/10/06 07:43:04;;;;;;;19.05;9.48;;;14.40;99.90;;;;;;5033296;28;20044;-84
2022/10/06 07:45:39;;;;;;;17.38;9.52;;;14.50;99.90;;;;;;5049459;28;20039;-86
2022/10/06 07:48:14;;;;;;;17.65;8.63;;;14.70;99.90;;;;;;5031389;28;20025;-84
2022/10/06 07:50:44;;;;;;;19.38;8.98;;;14.90;99.90;;;;;;5050401;28;20038;-85
2022/10/06 07:53:11;;;;;;;21.85;9.82;;;15.00;99.90;;;;;;5034698;28;20125;-86
2022/10/06 07:55:45;;;;;;;17.80;8.75;;;15.00;99.90;;;;;;5032257;28;20048;-84
2022/10/06 07:58:32;;;;;;;19.75;9.00;;;15.20;99.90;;;;;;5049831;28;20030;-84
2022/10/06 08:01:07;;;;;;;18.33;9.73;;;15.40;99.90;;;;;;5049017;28;20041;-85
2022/10/06 08:03:33;;;;;;;21.02;10.18;;;15.50;99.90;;;;;;5013109;28;20064;-86
2022/10/06 08:06:00;;;;;;;19.92;10.30;;;15.60;99.90;;;;;;5007975;28;20026;-87
2022/10/06 08:08:30;;;;;;;22.10;9.25;;;15.60;99.90;;;;;;5005271;28;20069;-87
2022/10/06 08:10:58;;;;;;;19.63;9.02;;;15.70;99.90;;;;;;5005034;28;20033;-86
2022/10/06 08:13:24;;;;;;;22.27;9.70;;;15.80;99.90;;;;;;5025099;28;20034;-86
2022/10/06 08:15:51;;;;;;;15.60;9.38;;;15.90;99.90;;;;;;5027031;28;20018;-89
2022/10/06 08:18:17;;;;;;;18.70;9.13;;;15.90;99.90;;;;;;5029101;28;20082;-87
2022/10/06 08:20:44;;;;;;;18.73;9.60;;;15.90;99.90;;;;;;5034552;28;20034;-86
2022/10/06 08:23:11;;;;;;;19.50;8.77;;;16.00;99.90;;;;;;5034519;28;20077;-88
2022/10/06 08:25:44;;;;;;;18.15;9.77;;;15.90;99.90;;;;;;5032649;28;20123;-87
2022/10/06 08:28:11;;;;;;;22.30;9.52;;;15.90;99.90;;;;;;5033937;28;20022;-87
2022/10/06 08:30:37;;;;;;;17.45;9.40;;;16.00;99.90;;;;;;5031089;28;20014;-86
2022/10/06 08:33:04;;;;;;;24.35;9.77;;;16.10;99.90;;;;;;5033608;28;20033;-83
2022/10/06 08:35:31;;;;;;;16.77;9.15;;;16.30;99.90;;;;;;5033554;28;20038;-85
2022/10/06 08:37:57;;;;;;;23.83;8.55;;;16.50;99.90;;;;;;5034690;28;20030;-82
2022/10/06 08:40:24;;;;;;;13.95;9.50;;;17.00;99.90;;;;;;5034439;28;20085;-86
2022/10/06 08:42:57;;;;;;;18.40;8.52;;;17.40;99.90;;;;;;5032417;28;20056;-84
2022/10/06 08:45:31;;;;;;;13.80;7.60;;;18.00;99.90;;;;;;5034376;28;20026;-86
2022/10/06 08:48:17;;;;;;;;;;;19.00;99.90;;;;;;5034205;28;20064;-84
2022/10/06 08:50:59;;;;;;;9.25;6.28;;;20.30;99.90;;;;;;5032260;28;19913;-87
2022/10/06 08:53:25;;;;;;;18.58;6.72;;;21.80;99.90;;;;;;5027417;28;20033;-87
2022/10/06 08:56:03;;;;;;;12.23;6.35;;;22.80;99.90;;;;;;5027014;28;20014;-86
2022/10/06 08:58:34;;;;;;;14.18;6.50;;;23.60;99.90;;;;;;5023978;28;20026;-88
2022/10/06 09:01:22;;;;;;;11.52;5.72;;;24.90;99.90;;;;;;5024177;28;20108;-86
2022/10/06 09:03:54;;;;;;;11.30;6.05;;;26.70;97.70;;;;;;5023211;28;20030;-89
2022/10/06 09:06:36;;;;;;;13.30;5.90;;;28.00;95.50;;;;;;5007184;28;20026;-87
2022/10/06 09:09:21;;;;;;;16.08;6.60;;;28.60;93.30;;;;;;5030039;28;20053;-86
2022/10/06 09:12:13;;;;;;;12.18;4.75;;;29.50;91.10;;;;;;5028915;28;20042;-85
2022/10/06 09:14:48;;;;;;;13.43;5.05;;;30.30;89.90;;;;;;5027943;28;20026;-86
2022/10/06 09:17:25;;;;;;;13.05;5.18;;;32.00;84.70;;;;;;5031036;28;20042;-86
2022/10/06 09:20:00;;;;;;;9.25;5.55;;;32.20;81.30;;;;;;5024524;28;20022;-85
2022/10/06 09:22:30;;;;;;;11.68;4.95;;;32.70;78.70;;;;;;5010209;28;20058;-87
2022/10/06 09:25:12;;;;;;;13.07;6.75;;;32.30;77.60;;;;;;5021210;28;20018;-87
2022/10/06 09:27:40;;;;;;;16.38;5.30;;;31.70;77.10;;;;;;5014200;28;20062;-87
2022/10/06 09:30:10;;;;;;;8.90;4.22;;;32.00;77.20;;;;;;5016892;28;20086;-88
2022/10/06 09:32:38;;;;;;;7.80;4.18;;;33.20;75.10;;;;;;5014792;28;20034;-89
2022/10/06 09:35:22;;;;;;;13.10;4.78;;;34.30;73.30;;;;;;5016378;28;20120;-87
2022/10/06 09:37:57;;;;;;;14.32;4.65;;;36.20;69.90;;;;;;5018513;28;20034;-87
2022/10/06 09:40:53;;;;;;;12.85;5.47;;;36.40;67.70;;;;;;5026563;28;20049;-86
2022/10/06 09:43:28;;;;;;;15.48;8.65;;;37.30;66.40;;;;;;5001591;28;20033;-87
2022/10/06 09:46:19;;;;;;;18.95;10.43;;;37.60;64.40;;;;;;5017101;28;20034;-86
2022/10/06 09:48:45;;;;;;;8.30;3.95;;;37.50;63.60;;;;;;5018599;28;20053;-85
2022/10/06 09:51:16;;;;;;;17.83;5.38;;;37.60;62.00;;;;;;5018388;28;20035;-86
2022/10/06 09:54:01;;;;;;;19.95;3.92;;;37.30;60.70;;;;;;5019237;28;20030;-86
2022/10/06 09:56:27;;;;;;;14.10;5.80;;;36.80;60.60;;;;;;5018461;28;20035;-85
2022/10/06 09:58:58;;;;;;;14.02;4.93;;;36.10;60.30;;;;;;5026381;28;20018;-85
2022/10/06 10:01:29;;;;;;;12.25;4.78;;;35.00;61.40;;;;;;5018474;28;20034;-87
2022/10/06 10:04:01;;;;;;;9.93;5.88;;;34.70;62.70;;;;;;5024732;28;20032;-86
2022/10/06 10:06:29;;;;;;;13.70;4.68;;;35.00;62.10;;;;;;5021982;28;20057;-88
2022/10/06 10:09:22;;;;;;;14.27;7.30;;;34.80;62.30;;;;;;5018111;28;20025;-87
2022/10/06 10:12:23;;;;;;;21.65;9.07;;;35.10;61.70;;;;;;5022444;28;20093;-87
2022/10/06 10:14:55;;;;;;;7.72;3.20;;;35.60;60.90;;;;;;5019059;28;20479;-87
2022/10/06 10:17:36;;;;;;;12.85;4.32;;;35.80;60.80;;;;;;5022719;28;20322;-86
2022/10/06 10:20:07;;;;;;;7.78;2.80;;;36.20;59.90;;;;;;5021718;28;20030;-85
2022/10/06 10:22:37;;;;;;;8.18;2.78;;;36.10;59.90;;;;;;4999073;28;20082;-89
2022/10/06 10:25:16;;;;;;;12.98;5.70;;;35.80;60.10;;;;;;5032765;28;20077;-89
2022/10/06 10:27:52;;;;;;;7.40;4.68;;;35.40;60.90;;;;;;5013512;28;20034;-86
2022/10/06 10:30:18;;;;;;;11.10;5.07;;;35.90;60.40;;;;;;5024046;28;20077;-86
2022/10/06 10:33:27;;;;;;;9.82;3.58;;;36.40;60.60;;;;;;5008508;28;20064;-88
2022/10/06 10:35:55;;;;;;;7.97;2.80;;;37.40;58.90;;;;;;5036402;28;20073;-88
2022/10/06 10:38:28;;;;;;;7.88;3.60;;;37.50;58.30;;;;;;5007338;28;20018;-89
2022/10/06 10:41:25;;;;;;;10.23;2.80;;;36.90;58.80;;;;;;5019074;28;20033;-87
2022/10/06 10:44:07;;;;;;;8.02;2.47;;;37.10;58.80;;;;;;5003492;28;20459;-87
2022/10/06 10:46:42;;;;;;;7.57;2.80;;;37.00;58.10;;;;;;4993652;28;20478;-88
2022/10/06 10:49:28;;;;;;;10.02;2.60;;;36.90;58.50;;;;;;5021421;23;20046;-83
2022/10/06 10:52:02;;;;;;;5.15;2.50;;;37.00;58.00;;;;;;4998457;28;20458;-85
2022/10/06 10:54:56;;;;;;;8.27;2.60;;;37.00;58.00;;;;;;4998817;28;20046;-83
2022/10/06 10:57:28;;;;;;;4.68;2.72;;;37.20;57.80;;;;;;4996270;28;20088;-81
2022/10/06 10:59:59;;;;;;;5.22;1.92;;;37.30;58.20;;;;;;4997896;28;20030;-79
2022/10/06 11:02:26;;;;;;;10.45;2.20;;;37.20;57.30;;;;;;5000422;28;20022;-82
2022/10/06 11:04:58;;;;;;;8.75;2.60;;;36.80;57.90;;;;;;4998256;28;20092;-82
2022/10/06 11:07:46;;;;;;;9.20;1.77;;;36.10;58.70;;;;;;4996652;28;20057;-83
2022/10/06 11:10:33;;;;;;;9.77;2.40;;;36.20;58.50;;;;;;5000118;28;20390;-82
2022/10/06 11:13:20;;;;;;;6.18;1.90;;;36.40;58.80;;;;;;5008133;28;20038;-83
2022/10/06 11:16:10;;;;;;;4.88;2.17;;;36.30;58.40;;;;;;4998942;28;20045;-83
2022/10/06 11:18:48;;;;;;;6.32;2.20;;;36.30;58.40;;;;;;4997787;28;20030;-82
2022/10/06 11:21:26;;;;;;;7.88;2.42;;;35.90;58.40;;;;;;4999019;28;20458;-83
2022/10/06 11:24:07;;;;;;;8.70;2.08;;;35.30;58.90;;;;;;4997611;28;20068;-83
2022/10/06 11:26:55;;;;;;;7.00;2.28;;;34.70;59.60;;;;;;4997543;28;20032;-83
2022/10/06 11:29:57;;;;;;;8.50;2.00;;;34.60;60.30;;;;;;4998963;28;20035;-83
2022/10/06 11:32:38;;;;;;;4.60;1.70;;;34.70;59.50;;;;;;5001565;28;20125;-82
2022/10/06 11:35:20;;;;;;;13.55;2.35;;;35.00;59.60;;;;;;5017101;28;20074;-84
2022/10/06 11:38:04;;;;;;;11.05;2.42;;;33.80;60.30;;;;;;4994444;28;20135;-82
2022/10/06 11:40:34;;;;;;;;;;;33.50;60.90;;;;;;4994066;28;20027;-83
2022/10/06 11:43:25;;;;;;;3.08;1.88;;;33.00;61.50;;;;;;4992267;28;19910;-82
2022/10/06 11:46:03;;;;;;;7.75;2.63;;;32.70;62.40;;;;;;5000165;28;20490;-81
2022/10/06 11:48:30;;;;;;;7.10;2.13;;;33.40;61.80;;;;;;4978192;28;20264;-82
2022/10/06 11:51:16;;;;;;;4.32;1.80;;;34.90;60.40;;;;;;4977896;28;20169;-83
2022/10/06 11:53:45;;;;;;;12.10;2.42;;;35.70;58.70;;;;;;4987875;28;20049;-81
2022/10/06 11:56:16;;;;;;;13.35;2.47;;;35.10;59.60;;;;;;5003552;28;20019;-82
2022/10/06 11:58:54;;;;;;;7.60;1.80;;;35.00;60.00;;;;;;4998804;28;20026;-83
2022/10/06 12:01:42;;;;;;;6.28;2.25;;;35.90;59.20;;;;;;5000137;28;20033;-81
2022/10/06 12:04:08;;;;;;;11.90;2.47;;;35.90;58.00;;;;;;5001670;28;20033;-82
2022/10/06 12:06:46;;;;;;;22.63;2.35;;;35.90;58.30;;;;;;5003876;28;20094;-82
2022/10/06 12:09:36;;;;;;;9.55;2.38;;;35.20;58.80;;;;;;4999634;28;20564;-82
2022/10/06 12:12:16;;;;;;;14.13;2.33;;;33.70;60.20;;;;;;5000673;28;20049;-83
2022/10/06 12:15:02;;;;;;;18.13;2.70;;;33.10;60.90;;;;;;4999152;28;20034;-81
2022/10/06 12:18:08;;;;;;;8.15;2.47;;;33.20;61.10;;;;;;4998164;28;20058;-80
2022/10/06 12:20:49;;;;;;;7.35;1.92;;;32.90;61.00;;;;;;5006449;28;20018;-80
2022/10/06 12:24:05;;;;;;;10.68;2.10;;;32.60;61.30;;;;;;5001079;28;20044;-82
2022/10/06 12:26:48;;;;;;;16.48;2.60;;;32.10;62.40;;;;;;4974950;28;20479;-81
2022/10/06 12:29:28;;;;;;;11.30;2.63;;;31.80;63.00;;;;;;4994685;28;20108;-83
2022/10/06 12:32:03;;;;;;;8.85;2.47;;;31.50;63.60;;;;;;4998061;28;20026;-82
2022/10/06 12:34:38;;;;;;;9.70;2.67;;;31.10;63.80;;;;;;5004291;28;20050;-82
2022/10/06 12:37:28;;;;;;;10.48;2.58;;;30.80;64.50;;;;;;5009863;28;20029;-82
2022/10/06 12:40:32;;;;;;;14.48;3.33;;;30.10;65.50;;;;;;4998248;28;20042;-84
2022/10/06 12:43:22;;;;;;;11.85;2.60;;;29.50;66.60;;;;;;5001708;28;20412;-82
2022/10/06 12:46:11;;;;;;;7.00;2.03;;;29.00;67.60;;;;;;5002632;28;20364;-83
2022/10/06 12:49:05;;;;;;;7.30;2.38;;;28.70;68.30;;;;;;5005128;28;20034;-82
2022/10/06 12:51:40;;;;;;;7.82;2.20;;;28.40;68.70;;;;;;5029360;28;20084;-82
2022/10/06 12:54:08;;;;;;;5.38;2.70;;;28.20;69.60;;;;;;5012365;28;20437;-81
2022/10/06 12:56:37;;;;;;;12.77;2.88;;;27.70;70.20;;;;;;5010321;28;20030;-80
2022/10/06 12:59:33;;;;;;;8.38;2.45;;;27.50;71.20;;;;;;5002842;28;20057;-81
2022/10/06 13:02:03;;;;;;;7.45;2.67;;;27.70;71.60;;;;;;5001719;28;20045;-82
2022/10/06 13:04:57;;;;;;;7.80;2.33;;;29.10;69.60;;;;;;5018469;28;20034;-81
2022/10/06 13:07:32;;;;;;;11.05;2.78;;;30.20;67.60;;;;;;5000619;28;20156;-82
2022/10/06 13:10:13;;;;;;;6.57;2.35;;;30.50;67.00;;;;;;5003370;28;20085;-82
2022/10/06 13:12:45;;;;;;;6.32;2.42;;;30.40;67.10;;;;;;5019650;28;20086;-80